Time;durP1;ratioP1;P1;durP2;ratioP2;P2;SDS_P1;SDS_P2;PMS_P1;PMS_P2;Temp;Humidity;BMP_temperature;BMP_pressure;BME280_temperature;BME280_humidity;BME280_pressure;Samples;Min_cycle;Max_cycle;Signal;HPM_P1;HPM_P2
2022/03/15 00:01:25;;;;;;;30.30;10.70;;;;;;;4.51;94.90;102180.94;6037818;28;20033;-73
2022/03/15 00:04:21;;;;;;;36.25;12.70;;;;;;;4.50;94.79;102179.25;6047828;28;20034;-71
2022/03/15 00:07:16;;;;;;;31.83;11.88;;;;;;;4.48;95.13;102188.97;6035042;28;20370;-72
2022/03/15 00:10:18;;;;;;;33.88;11.50;;;;;;;4.44;95.14;102184.78;6044757;28;20025;-73
2022/03/15 00:13:14;;;;;;;35.55;11.98;;;;;;;4.46;94.81;102197.81;6040478;28;20100;-72
2022/03/15 00:16:10;;;;;;;30.27;11.18;;;;;;;4.40;96.07;102199.00;6035893;28;20038;-73
2022/03/15 00:19:06;;;;;;;31.08;12.15;;;;;;;4.42;95.59;102197.13;6049309;28;20030;-71
2022/03/15 00:22:04;;;;;;;35.33;12.60;;;;;;;4.42;95.19;102193.66;6048067;28;20045;-73
2022/03/15 00:24:59;;;;;;;28.55;11.90;;;;;;;4.34;95.67;102203.66;6048499;28;20033;-74
2022/03/15 00:27:55;;;;;;;30.47;11.73;;;;;;;4.32;95.12;102201.06;6058784;28;20026;-70
2022/03/15 00:30:52;;;;;;;30.17;11.43;;;;;;;4.23;95.96;102206.75;6031974;28;20469;-72
2022/03/15 00:33:47;;;;;;;34.97;11.40;;;;;;;4.16;95.85;102216.66;6043080;28;20080;-72
2022/03/15 00:36:43;;;;;;;37.07;12.73;;;;;;;4.13;95.47;102216.81;6036372;28;20374;-73
2022/03/15 00:39:38;;;;;;;29.48;11.85;;;;;;;4.10;95.56;102216.13;6038685;28;20030;-73
2022/03/15 00:42:34;;;;;;;33.83;11.38;;;;;;;4.07;96.40;102211.84;6042329;28;20080;-72
2022/03/15 00:45:29;;;;;;;31.83;12.05;;;;;;;4.05;96.03;102228.59;6040082;28;20061;-72
2022/03/15 00:48:24;;;;;;;31.17;11.45;;;;;;;4.07;95.91;102217.09;6045927;28;20370;-71
2022/03/15 00:51:20;;;;;;;33.43;12.43;;;;;;;4.12;95.67;102215.13;6049551;28;20037;-71
2022/03/15 00:54:15;;;;;;;35.73;13.03;;;;;;;4.11;95.45;102231.78;6050638;28;20049;-73
2022/03/15 00:57:11;;;;;;;43.33;13.33;;;;;;;4.06;96.36;102239.00;6048952;28;20048;-73
2022/03/15 01:00:08;;;;;;;45.10;13.57;;;;;;;4.03;95.68;102230.41;6036372;28;20025;-71
2022/03/15 01:03:04;;;;;;;37.10;12.98;;;;;;;4.08;95.99;102236.28;6041609;28;20128;-72
2022/03/15 01:05:59;;;;;;;39.78;13.25;;;;;;;4.05;95.41;102236.47;6043926;28;20385;-72
2022/03/15 01:08:54;;;;;;;42.05;13.18;;;;;;;4.11;95.14;102249.28;6049906;28;20044;-73
2022/03/15 01:11:50;;;;;;;40.77;12.93;;;;;;;4.13;96.09;102248.31;6049463;28;20029;-72
2022/03/15 01:14:45;;;;;;;34.97;13.33;;;;;;;4.15;96.09;102243.88;6038839;28;20030;-72
2022/03/15 01:17:41;;;;;;;35.53;14.02;;;;;;;4.20;96.15;102252.38;6047181;28;20300;-71
2022/03/15 01:20:39;;;;;;;34.90;13.33;;;;;;;4.18;95.54;102245.50;6049010;28;20041;-73
2022/03/15 01:23:34;;;;;;;38.50;13.43;;;;;;;4.25;96.04;102246.91;6043755;28;20050;-71
2022/03/15 01:26:30;;;;;;;34.57;12.47;;;;;;;4.25;96.17;102246.91;6048362;28;20385;-73
2022/03/15 01:29:26;;;;;;;42.93;12.67;;;;;;;4.22;95.92;102253.16;6046939;28;20378;-72
2022/03/15 01:32:21;;;;;;;38.38;13.90;;;;;;;4.18;96.03;102256.81;6039467;28;20065;-72
2022/03/15 01:35:17;;;;;;;36.13;12.67;;;;;;;4.13;95.76;102245.69;6037635;28;20040;-71
2022/03/15 01:38:12;;;;;;;30.88;12.20;;;;;;;4.12;95.99;102251.88;6041359;28;20441;-72
2022/03/15 01:41:08;;;;;;;34.83;11.95;;;;;;;4.05;95.81;102245.16;6041685;28;20056;-72
2022/03/15 01:44:04;;;;;;;40.97;13.15;;;;;;;3.99;95.71;102249.84;6044615;28;20044;-71
2022/03/15 01:47:00;;;;;;;37.53;13.43;;;;;;;4.00;96.06;102257.63;6033030;28;20445;-71
2022/03/15 01:49:55;;;;;;;38.80;13.50;;;;;;;3.95;95.37;102248.25;6048687;28;20053;-72
2022/03/15 01:52:51;;;;;;;40.30;13.90;;;;;;;3.92;95.71;102244.00;6044368;28;20441;-71
2022/03/15 01:55:46;;;;;;;37.80;13.15;;;;;;;3.87;94.69;102250.34;6040752;28;20058;-71
2022/03/15 01:58:42;;;;;;;35.27;13.33;;;;;;;3.88;95.48;102252.94;6054320;28;20037;-72
2022/03/15 02:01:41;;;;;;;33.60;12.90;;;;;;;3.87;95.46;102245.09;6048658;28;20290;-71
2022/03/15 02:04:37;;;;;;;36.88;13.15;;;;;;;3.82;95.37;102239.22;6060615;28;20080;-69
2022/03/15 02:07:32;;;;;;;35.03;12.35;;;;;;;3.79;95.64;102241.97;6047807;28;20042;-72
2022/03/15 02:10:27;;;;;;;38.17;13.63;;;;;;;3.74;95.48;102233.44;6044090;28;20034;-72
2022/03/15 02:13:23;;;;;;;39.93;14.07;;;;;;;3.72;95.26;102230.03;6047094;28;20026;-72
2022/03/15 02:16:19;;;;;;;36.17;12.98;;;;;;;3.67;95.01;102238.06;6044015;28;20022;-71
2022/03/15 02:19:14;;;;;;;37.67;12.97;;;;;;;3.64;95.03;102233.00;6047198;28;20076;-71
2022/03/15 02:22:10;;;;;;;41.60;13.27;;;;;;;3.54;94.87;102243.00;6051799;28;20055;-72
2022/03/15 02:25:05;;;;;;;34.72;12.27;;;;;;;3.40;94.87;102245.31;6053225;28;20026;-71
2022/03/15 02:28:01;;;;;;;32.45;12.65;;;;;;;3.29;95.55;102244.91;6053139;28;20036;-73
2022/03/15 02:30:56;;;;;;;33.17;11.93;;;;;;;3.20;95.59;102236.56;6042095;28;20041;-71
2022/03/15 02:33:51;;;;;;;32.57;13.20;;;;;;;3.16;94.75;102243.69;6053168;28;20037;-71
2022/03/15 02:36:47;;;;;;;32.83;11.18;;;;;;;3.05;94.61;102237.16;6048220;28;20062;-71
2022/03/15 02:39:42;;;;;;;32.45;12.20;;;;;;;2.93;95.26;102238.53;6051390;28;20052;-71
2022/03/15 02:42:37;;;;;;;33.00;13.67;;;;;;;2.84;94.79;102233.63;6046351;28;20034;-72
2022/03/15 02:45:33;;;;;;;40.13;14.77;;;;;;;2.94;95.55;102219.25;6039245;28;20030;-72
2022/03/15 02:48:28;;;;;;;35.20;12.90;;;;;;;3.04;95.44;102223.22;6040885;28;20272;-71
2022/03/15 02:51:23;;;;;;;42.53;13.00;;;;;;;3.12;95.78;102217.69;6051835;28;20277;-71
2022/03/15 02:54:19;;;;;;;30.17;11.13;;;;;;;3.03;95.52;102216.28;6049690;28;20378;-71
2022/03/15 02:57:14;;;;;;;31.77;10.90;;;;;;;2.97;96.07;102219.13;6040881;28;20444;-71
2022/03/15 03:00:10;;;;;;;38.37;13.10;;;;;;;2.89;95.87;102215.97;6043612;28;20022;-70
2022/03/15 03:03:05;;;;;;;30.15;11.50;;;;;;;2.89;95.38;102205.47;6052826;28;20034;-69
2022/03/15 03:06:01;;;;;;;31.83;12.10;;;;;;;2.80;96.18;102203.25;6052203;28;20041;-71
2022/03/15 03:08:56;;;;;;;27.40;10.90;;;;;;;2.76;95.47;102201.66;6051192;28;20426;-71
2022/03/15 03:11:51;;;;;;;31.10;12.07;;;;;;;2.68;95.43;102195.84;6047881;28;20033;-71
2022/03/15 03:14:48;;;;;;;32.70;11.33;;;;;;;2.68;95.36;102188.00;6052049;28;20041;-69
2022/03/15 03:17:44;;;;;;;36.00;11.93;;;;;;;2.73;95.67;102193.91;6032383;28;20030;-73
2022/03/15 03:20:40;;;;;;;33.05;12.52;;;;;;;2.89;95.86;102200.25;6045682;28;20026;-71
2022/03/15 03:23:36;;;;;;;37.88;13.77;;;;;;;2.88;95.52;102201.19;6052215;28;20041;-73
2022/03/15 03:26:32;;;;;;;44.08;14.15;;;;;;;2.94;95.26;102219.25;6059704;28;20378;-69
2022/03/15 03:29:29;;;;;;;35.40;13.05;;;;;;;2.92;96.41;102205.38;6059849;28;20037;-71
2022/03/15 03:32:25;;;;;;;39.67;13.82;;;;;;;3.07;95.54;102215.25;6034008;28;20037;-70
2022/03/15 03:35:21;;;;;;;46.63;16.63;;;;;;;3.15;96.08;102199.22;6061303;28;20026;-70
2022/03/15 03:38:17;;;;;;;50.35;14.70;;;;;;;3.26;96.22;102213.56;6034696;28;20040;-70
2022/03/15 03:41:12;;;;;;;39.00;13.15;;;;;;;3.23;96.14;102213.72;6047962;28;20033;-69
2022/03/15 03:44:08;;;;;;;45.67;15.00;;;;;;;3.30;96.48;102209.91;6047068;28;20048;-70
2022/03/15 03:47:04;;;;;;;48.17;16.67;;;;;;;3.35;95.81;102210.59;6033226;28;20014;-71
2022/03/15 03:49:59;;;;;;;39.10;14.98;;;;;;;3.36;96.20;102219.31;6046226;28;20058;-72
2022/03/15 03:52:54;;;;;;;40.30;12.97;;;;;;;3.40;96.42;102213.84;6050091;28;20034;-71
2022/03/15 03:55:50;;;;;;;36.42;12.98;;;;;;;3.37;95.94;102208.75;6050396;28;20277;-72
2022/03/15 03:58:45;;;;;;;33.83;11.23;;;;;;;3.33;96.04;102198.44;6039189;28;20030;-70
2022/03/15 04:01:40;;;;;;;29.80;11.90;;;;;;;3.27;96.39;102204.81;6044890;28;20032;-71
2022/03/15 04:04:36;;;;;;;30.10;11.17;;;;;;;3.11;95.73;102197.63;6050739;28;20029;-71
2022/03/15 04:07:32;;;;;;;34.35;11.30;;;;;;;3.08;95.96;102195.97;6050436;28;20034;-71
2022/03/15 04:10:28;;;;;;;35.90;10.63;;;;;;;3.14;95.72;102195.75;6049987;28;20097;-71
2022/03/15 04:13:25;;;;;;;42.67;14.32;;;;;;;3.12;95.71;102194.97;6050003;28;20018;-70
2022/03/15 04:16:20;;;;;;;41.33;12.88;;;;;;;3.10;96.00;102194.13;6049801;28;20026;-71
2022/03/15 04:19:15;;;;;;;51.13;14.50;;;;;;;3.33;95.56;102194.06;6049917;28;20069;-71
2022/03/15 04:22:11;;;;;;;41.33;12.85;;;;;;;3.29;95.59;102189.84;6050522;28;20021;-72
2022/03/15 04:25:07;;;;;;;40.73;14.30;;;;;;;3.28;96.00;102176.81;6050014;28;20037;-69
2022/03/15 04:28:02;;;;;;;40.30;13.13;;;;;;;3.32;96.61;102188.88;6049524;28;20057;-70
2022/03/15 04:30:57;;;;;;;40.72;14.15;;;;;;;3.45;96.71;102196.16;6040463;28;20036;-72
2022/03/15 04:33:53;;;;;;;41.50;12.03;;;;;;;3.37;96.28;102187.75;6064932;28;20030;-72
2022/03/15 04:36:48;;;;;;;35.10;11.33;;;;;;;3.47;95.50;102183.00;6051068;28;20014;-71
2022/03/15 04:39:43;;;;;;;47.20;13.53;;;;;;;3.43;95.94;102187.50;6048566;28;20296;-71
2022/03/15 04:42:39;;;;;;;36.63;12.73;;;;;;;3.33;96.58;102169.63;6049039;28;20123;-72
2022/03/15 04:45:34;;;;;;;37.13;11.77;;;;;;;3.26;96.39;102183.91;6050492;28;20029;-71
2022/03/15 04:48:30;;;;;;;30.80;10.20;;;;;;;3.17;96.19;102169.41;6045501;28;20030;-70
2022/03/15 04:51:25;;;;;;;32.20;11.37;;;;;;;3.04;96.40;102180.44;6043603;28;20030;-72
2022/03/15 04:54:20;;;;;;;33.03;11.40;;;;;;;3.13;95.89;102180.91;6034171;28;20080;-70
2022/03/15 04:57:16;;;;;;;30.05;9.52;;;;;;;3.13;96.29;102193.16;6053644;28;20037;-70
2022/03/15 05:00:12;;;;;;;29.00;9.82;;;;;;;3.08;95.71;102180.25;6054942;28;20025;-70
2022/03/15 05:03:08;;;;;;;27.08;9.23;;;;;;;2.98;95.32;102178.94;6053860;28;20026;-70
2022/03/15 05:06:03;;;;;;;25.27;9.98;;;;;;;2.92;95.69;102190.50;6064531;28;20037;-73
2022/03/15 05:08:59;;;;;;;26.60;8.45;;;;;;;2.86;95.39;102174.16;6049290;28;20088;-73
2022/03/15 05:11:54;;;;;;;26.88;9.55;;;;;;;2.80;95.39;102172.66;6044786;28;20057;-70
2022/03/15 05:14:49;;;;;;;26.07;9.20;;;;;;;2.84;95.54;102181.25;6032336;28;20098;-70
2022/03/15 05:17:45;;;;;;;28.87;10.00;;;;;;;2.79;95.72;102183.19;6026601;28;20481;-70
2022/03/15 05:20:41;;;;;;;25.92;9.70;;;;;;;2.71;95.08;102180.03;6030402;28;20042;-73
2022/03/15 05:23:36;;;;;;;22.93;10.10;;;;;;;2.77;95.01;102179.78;6031536;28;20374;-72
2022/03/15 05:26:31;;;;;;;20.70;8.30;;;;;;;2.72;95.39;102186.94;6044895;28;20313;-71
2022/03/15 05:29:27;;;;;;;26.10;9.07;;;;;;;2.84;95.86;102186.47;6041800;28;20519;-72
2022/03/15 05:32:22;;;;;;;27.08;9.13;;;;;;;2.76;95.05;102183.31;6039370;28;20477;-72
2022/03/15 05:35:17;;;;;;;24.20;8.83;;;;;;;2.70;95.63;102188.78;6026395;28;20114;-72
2022/03/15 05:38:13;;;;;;;21.87;7.67;;;;;;;2.74;95.54;102190.38;6027336;28;20030;-72
2022/03/15 05:41:08;;;;;;;35.13;11.17;;;;;;;2.95;95.73;102184.28;6032980;28;20029;-70
2022/03/15 05:44:04;;;;;;;28.90;10.32;;;;;;;3.11;96.57;102188.00;6049509;28;20281;-72
2022/03/15 05:46:59;;;;;;;27.25;9.80;;;;;;;3.17;95.71;102194.75;6053439;28;20025;-69
2022/03/15 05:49:55;;;;;;;27.53;8.27;;;;;;;3.20;96.62;102197.25;6045538;28;20034;-72
2022/03/15 05:52:50;;;;;;;23.67;8.23;;;;;;;3.27;96.36;102196.09;6052374;28;20030;-72
2022/03/15 05:55:45;;;;;;;35.33;12.93;;;;;;;3.23;95.90;102182.28;6049756;28;20280;-69
2022/03/15 05:58:42;;;;;;;38.95;14.57;;;;;;;3.32;96.38;102183.63;6036006;28;20465;-72
2022/03/15 06:01:38;;;;;;;27.50;9.98;;;;;;;3.38;95.75;102188.63;6039161;28;20034;-71
2022/03/15 06:04:34;;;;;;;29.35;9.95;;;;;;;3.41;96.17;102197.22;6034493;28;20520;-71
2022/03/15 06:07:30;;;;;;;28.35;10.15;;;;;;;3.41;95.73;102194.59;6046796;28;20064;-72
2022/03/15 06:10:26;;;;;;;30.65;10.32;;;;;;;3.45;95.71;102201.41;6040033;28;20026;-72
2022/03/15 06:13:22;;;;;;;29.65;10.15;;;;;;;3.47;96.51;102204.84;6025735;28;20951;-72
2022/03/15 06:16:17;;;;;;;26.70;10.83;;;;;;;3.48;96.27;102206.53;6032236;28;20045;-70
2022/03/15 06:19:12;;;;;;;33.63;10.50;;;;;;;3.57;96.43;102206.16;6046568;28;20026;-72
2022/03/15 06:22:08;;;;;;;36.13;11.35;;;;;;;3.56;95.53;102201.81;6046553;28;20038;-69
2022/03/15 06:25:03;;;;;;;25.55;9.27;;;;;;;3.61;95.38;102202.47;6048809;28;20114;-70
2022/03/15 06:27:59;;;;;;;29.73;10.65;;;;;;;3.61;96.13;102204.25;6045491;28;20508;-69
2022/03/15 06:30:57;;;;;;;34.67;10.57;;;;;;;3.57;95.65;102194.81;6044669;28;20065;-72
2022/03/15 06:33:53;;;;;;;27.17;9.75;;;;;;;3.67;96.23;102201.34;6044587;28;20449;-71
2022/03/15 06:36:49;;;;;;;25.48;9.70;;;;;;;3.70;96.13;102195.13;6030966;28;20038;-70
2022/03/15 06:39:44;;;;;;;31.60;11.43;;;;;;;3.69;96.08;102201.31;6036493;28;20080;-72
2022/03/15 06:42:40;;;;;;;25.33;10.83;;;;;;;3.75;95.25;102201.06;6042772;28;20342;-71
2022/03/15 06:45:35;;;;;;;27.88;10.32;;;;;;;3.87;96.19;102203.97;6047375;28;20366;-71
2022/03/15 06:48:30;;;;;;;23.55;10.25;;;;;;;3.97;95.30;102204.41;6047264;28;20385;-70
2022/03/15 06:51:26;;;;;;;22.90;9.57;;;;;;;4.06;94.95;102199.63;6050535;28;20144;-71
2022/03/15 06:54:22;;;;;;;26.48;9.23;;;;;;;4.13;95.44;102208.09;6053000;28;20111;-70
2022/03/15 06:57:17;;;;;;;31.45;10.45;;;;;;;4.14;95.30;102207.16;6051603;28;20073;-69
2022/03/15 07:00:14;;;;;;;28.87;9.70;;;;;;;4.24;95.46;102203.19;6051520;28;20101;-70
2022/03/15 07:03:10;;;;;;;26.60;10.30;;;;;;;4.08;94.70;102191.69;6044023;28;20030;-72
2022/03/15 07:06:05;;;;;;;32.25;11.15;;;;;;;4.15;94.69;102193.13;6033091;28;20073;-72
2022/03/15 07:09:00;;;;;;;31.65;11.98;;;;;;;4.18;95.00;102196.44;6037949;28;20039;-71
2022/03/15 07:11:56;;;;;;;25.50;9.30;;;;;;;4.35;94.94;102185.19;6042617;28;20037;-71
2022/03/15 07:14:51;;;;;;;32.70;11.33;;;;;;;4.43;94.31;102196.19;6052724;28;20377;-71
2022/03/15 07:17:55;;;;;;;33.25;10.73;;;;;;;4.49;94.47;102192.44;6051629;28;20273;-69
2022/03/15 07:20:50;;;;;;;27.95;10.68;;;;;;;4.64;94.54;102192.59;6051835;28;20038;-70
2022/03/15 07:23:46;;;;;;;29.33;9.70;;;;;;;4.73;93.52;102186.03;6048151;28;20473;-70
2022/03/15 07:26:42;;;;;;;28.08;11.15;;;;;;;4.87;93.86;102194.13;6041133;28;20064;-69
2022/03/15 07:29:37;;;;;;;31.15;9.85;;;;;;;4.84;94.06;102191.63;6046428;28;20033;-70
2022/03/15 07:32:33;;;;;;;23.05;9.88;;;;;;;5.08;93.25;102192.25;6051102;28;20041;-72
2022/03/15 07:35:28;;;;;;;23.70;9.20;;;;;;;5.06;92.03;102186.19;6052627;28;20488;-70
2022/03/15 07:38:24;;;;;;;27.17;9.87;;;;;;;5.27;92.29;102187.78;6047107;28;20026;-69
2022/03/15 07:41:21;;;;;;;26.42;9.90;;;;;;;5.33;91.78;102183.06;6027796;28;20324;-72
2022/03/15 07:44:17;;;;;;;23.20;8.00;;;;;;;5.37;91.67;102179.38;6044086;28;20050;-71
2022/03/15 07:47:15;;;;;;;22.13;9.30;;;;;;;5.59;90.74;102173.00;6038481;28;20030;-72
2022/03/15 07:50:10;;;;;;;24.08;10.43;;;;;;;5.69;90.43;102163.72;6051489;28;20076;-72
2022/03/15 07:53:06;;;;;;;24.50;9.90;;;;;;;5.80;90.67;102164.00;6047208;28;20049;-72
2022/03/15 07:56:01;;;;;;;27.20;9.68;;;;;;;5.78;90.23;102164.09;6037527;28;20019;-73
2022/03/15 07:58:56;;;;;;;26.70;9.87;;;;;;;5.89;89.62;102169.69;6047592;28;20385;-73
2022/03/15 08:01:51;;;;;;;25.17;10.33;;;;;;;6.11;89.61;102160.66;6047534;28;20030;-72
2022/03/15 08:04:47;;;;;;;28.48;9.32;;;;;;;6.33;89.51;102164.66;6055758;28;20033;-73
2022/03/15 08:07:42;;;;;;;22.07;8.10;;;;;;;6.50;87.42;102166.38;6040801;28;20021;-73
2022/03/15 08:10:37;;;;;;;28.17;9.73;;;;;;;6.49;87.53;102167.34;6034237;28;20031;-71
2022/03/15 08:13:34;;;;;;;25.63;10.27;;;;;;;6.69;86.63;102153.88;6043703;28;20034;-70
2022/03/15 08:16:29;;;;;;;23.60;8.27;;;;;;;6.71;86.60;102162.59;6050628;28;20321;-72
2022/03/15 08:19:26;;;;;;;25.20;9.70;;;;;;;6.98;87.13;102166.31;6039204;28;20104;-72
2022/03/15 08:22:22;;;;;;;24.10;10.23;;;;;;;7.05;85.67;102165.00;6030676;28;20515;-71
2022/03/15 08:25:17;;;;;;;24.15;9.25;;;;;;;7.14;85.20;102161.00;6046386;28;20023;-70
2022/03/15 08:28:12;;;;;;;22.03;9.30;;;;;;;7.27;85.28;102156.69;6043652;28;20377;-70
2022/03/15 08:31:08;;;;;;;26.40;9.83;;;;;;;7.36;84.89;102152.69;6041884;28;20037;-73
2022/03/15 08:34:03;;;;;;;27.27;9.35;;;;;;;7.47;84.58;102150.25;6041398;28;20101;-72
2022/03/15 08:36:58;;;;;;;22.87;8.87;;;;;;;7.64;84.31;102152.72;6033975;28;20070;-73
2022/03/15 08:39:54;;;;;;;29.80;9.47;;;;;;;7.86;83.49;102141.72;6039257;28;20096;-73
2022/03/15 08:42:50;;;;;;;25.55;8.18;;;;;;;7.86;82.62;102147.84;6039396;28;20056;-69
2022/03/15 08:45:45;;;;;;;22.27;8.43;;;;;;;8.20;82.24;102150.13;6037741;28;20030;-70
2022/03/15 08:48:41;;;;;;;27.65;8.52;;;;;;;8.26;80.09;102160.28;6035989;28;20034;-72
2022/03/15 08:51:36;;;;;;;19.37;8.63;;;;;;;8.33;80.11;102151.09;6046665;28;20033;-73
2022/03/15 08:54:32;;;;;;;17.73;7.77;;;;;;;8.54;80.34;102158.59;6048717;28;20058;-73
2022/03/15 08:57:27;;;;;;;19.20;7.82;;;;;;;8.61;80.68;102155.50;6047941;28;20042;-73
2022/03/15 09:00:23;;;;;;;15.18;6.22;;;;;;;8.86;78.10;102152.09;6049331;28;20026;-73
2022/03/15 09:03:19;;;;;;;16.42;6.80;;;;;;;8.78;77.78;102142.00;6048902;28;20036;-72
2022/03/15 09:06:14;;;;;;;15.75;6.32;;;;;;;8.96;77.94;102137.31;6053003;28;20069;-71
2022/03/15 09:09:09;;;;;;;15.57;6.23;;;;;;;9.16;77.08;102128.09;6048181;28;20041;-72
2022/03/15 09:12:05;;;;;;;16.80;6.37;;;;;;;9.03;76.78;102127.19;6046441;28;20107;-73
2022/03/15 09:15:01;;;;;;;14.63;5.80;;;;;;;9.13;76.04;102121.16;6048628;28;20276;-70
2022/03/15 09:17:57;;;;;;;13.25;6.03;;;;;;;9.20;75.35;102119.81;6048844;28;20038;-73
2022/03/15 09:20:53;;;;;;;13.90;5.18;;;;;;;9.45;75.33;102114.59;6048882;28;20034;-71
2022/03/15 09:23:51;;;;;;;13.35;5.32;;;;;;;9.55;74.05;102113.00;6043933;28;20112;-73
2022/03/15 09:26:46;;;;;;;12.43;5.07;;;;;;;9.33;75.41;102112.75;6040336;28;20030;-72
2022/03/15 09:29:41;;;;;;;14.38;6.40;;;;;;;9.73;75.29;102104.75;6045584;28;20473;-73
2022/03/15 09:32:37;;;;;;;19.80;6.60;;;;;;;9.52;74.77;102099.97;6033317;28;20030;-73
2022/03/15 09:35:33;;;;;;;15.67;6.47;;;;;;;9.52;74.85;102092.00;6039452;28;20412;-72
2022/03/15 09:38:28;;;;;;;15.75;6.85;;;;;;;9.38;74.70;102100.03;6044312;28;20470;-73
2022/03/15 09:41:25;;;;;;;15.37;5.50;;;;;;;9.42;75.01;102085.66;6047657;28;20026;-74
2022/03/15 09:44:25;;;;;;;13.77;6.25;;;;;;;9.68;74.44;102088.28;6047144;28;20022;-73
2022/03/15 09:47:24;;;;;;;18.92;6.28;;;;;;;9.79;73.22;102083.09;6037235;28;20348;-74
2022/03/15 09:50:20;;;;;;;16.35;5.65;;;;;;;9.85;72.90;102072.94;6042227;28;20061;-71
2022/03/15 09:53:16;;;;;;;18.80;6.13;;;;;;;10.03;72.65;102066.31;6048930;28;20048;-73
2022/03/15 09:56:14;;;;;;;15.73;5.88;;;;;;;10.00;71.97;102074.47;6046659;28;21788;-73
2022/03/15 09:59:18;;;;;;;21.90;5.88;;;;;;;10.00;72.41;102071.00;6049200;28;20477;-73
2022/03/15 10:02:13;;;;;;;12.90;5.88;;;;;;;9.91;72.30;102071.66;6047452;28;20038;-73
2022/03/15 10:05:09;;;;;;;15.50;5.72;;;;;;;10.06;71.77;102071.41;6041112;28;20461;-73
2022/03/15 10:08:05;;;;;;;13.43;6.22;;;;;;;9.95;72.11;102065.16;6036416;28;20036;-74
2022/03/15 10:11:00;;;;;;;14.50;6.25;;;;;;;10.10;72.92;102072.91;6032156;28;20362;-73
2022/03/15 10:13:56;;;;;;;14.98;5.68;;;;;;;9.95;73.54;102075.75;6040511;28;20034;-71
2022/03/15 10:16:59;;;;;;;15.00;6.32;;;;;;;10.07;71.11;102072.25;6047918;28;20112;-71
2022/03/15 10:19:56;;;;;;;14.88;6.80;;;;;;;10.23;71.23;102058.78;6053768;28;20040;-72
2022/03/15 10:22:57;;;;;;;17.45;6.70;;;;;;;10.14;71.98;102057.63;6051234;28;20457;-72
2022/03/15 10:25:53;;;;;;;17.58;7.32;;;;;;;10.25;71.46;102054.19;6053062;28;20385;-72
2022/03/15 10:28:49;;;;;;;19.80;7.70;;;;;;;10.12;71.89;102055.09;6046300;28;20121;-73
2022/03/15 10:31:45;;;;;;;20.63;8.68;;;;;;;10.47;72.22;102038.44;6049544;28;20034;-72
2022/03/15 10:34:41;;;;;;;19.95;8.63;;;;;;;10.61;70.19;102048.88;6052409;28;20017;-71
2022/03/15 10:37:40;;;;;;;20.25;8.20;;;;;;;10.47;70.18;102039.28;6034688;28;20030;-73
2022/03/15 10:40:38;;;;;;;22.52;7.90;;;;;;;10.60;70.27;102029.44;6042077;28;20057;-73
2022/03/15 10:43:33;;;;;;;23.35;9.43;;;;;;;10.58;69.80;102034.03;6052989;28;20048;-72
2022/03/15 10:46:29;;;;;;;26.00;12.00;;;;;;;10.56;69.45;102033.31;6051554;28;20034;-73
2022/03/15 10:49:24;;;;;;;30.97;11.50;;;;;;;10.94;69.41;102033.09;6050981;28;20034;-70
2022/03/15 10:52:40;;;;;;;21.70;9.18;;;;;;;10.76;68.98;102024.69;6051119;28;20113;-70
2022/03/15 10:55:35;;;;;;;22.02;9.30;;;;;;;10.63;70.27;102034.53;6041563;28;20053;-73
2022/03/15 10:58:33;;;;;;;24.20;10.23;;;;;;;10.94;70.75;102021.63;6041085;28;20038;-73
2022/03/15 11:01:38;;;;;;;26.00;9.85;;;;;;;11.01;69.73;102017.53;6038683;28;20041;-72
2022/03/15 11:04:33;;;;;;;27.55;9.73;;;;;;;11.17;69.50;102013.59;6051841;28;20033;-71
2022/03/15 11:07:42;;;;;;;22.17;10.37;;;;;;;11.29;69.00;102003.84;6050912;28;20461;-74
2022/03/15 11:10:39;;;;;;;29.92;10.82;;;;;;;11.24;69.52;102004.22;6047309;28;20473;-73
2022/03/15 11:13:36;;;;;;;29.27;11.32;;;;;;;11.31;69.28;102007.22;6050400;28;20041;-71
2022/03/15 11:16:36;;;;;;;29.85;12.63;;;;;;;11.19;68.16;102000.22;6040607;28;20418;-72
2022/03/15 11:19:32;;;;;;;29.92;12.15;;;;;;;11.03;68.83;101997.06;6050926;28;20029;-75
2022/03/15 11:22:34;;;;;;;33.47;13.18;;;;;;;11.20;69.03;101991.25;6059226;28;20538;-74
2022/03/15 11:25:34;;;;;;;29.85;11.88;;;;;;;11.06;67.98;101984.38;6044436;28;20053;-74
2022/03/15 11:28:31;;;;;;;27.50;11.85;;;;;;;10.99;68.50;101979.66;6050423;28;20034;-73
2022/03/15 11:31:32;;;;;;;27.63;11.35;;;;;;;10.93;68.81;101980.13;6049273;28;20049;-73
2022/03/15 11:34:28;;;;;;;27.52;10.68;;;;;;;10.84;69.64;101978.19;6051267;28;20087;-73
2022/03/15 11:37:24;;;;;;;28.35;11.35;;;;;;;11.12;69.71;101972.44;6051227;28;20454;-72
2022/03/15 11:40:20;;;;;;;30.75;11.55;;;;;;;11.36;68.50;101959.88;6049939;28;20038;-72
2022/03/15 11:43:37;;;;;;;24.95;11.30;;;;;;;11.23;67.79;101953.84;6051122;28;20458;-73
2022/03/15 11:46:43;;;;;;;30.95;11.02;;;;;;;11.43;67.14;101947.84;6047511;28;20030;-71
2022/03/15 11:49:52;;;;;;;31.30;12.05;;;;;;;11.22;67.70;101938.91;6051102;28;20040;-72
2022/03/15 11:53:08;;;;;;;27.83;12.15;;;;;;;10.97;69.04;101936.47;6033740;28;20034;-74
2022/03/15 11:56:31;;;;;;;32.85;12.60;;;;;;;11.07;68.57;101937.44;6051038;28;20038;-71
2022/03/15 11:59:26;;;;;;;25.92;10.52;;;;;;;11.37;67.87;101932.38;6040006;28;20030;-71
2022/03/15 12:02:29;;;;;;;27.40;11.47;;;;;;;11.74;66.70;101927.69;6048135;28;20049;-72
2022/03/15 12:05:25;;;;;;;25.27;10.43;;;;;;;11.51;65.52;101925.97;6042458;28;20033;-74
2022/03/15 12:08:35;;;;;;;31.02;11.48;;;;;;;11.51;65.33;101910.03;6042234;28;20056;-74
2022/03/15 12:11:35;;;;;;;31.00;12.82;;;;;;;11.64;65.97;101903.63;6049270;28;20044;-72
2022/03/15 12:14:38;;;;;;;26.63;11.38;;;;;;;11.53;65.63;101902.78;6048592;28;20056;-73
2022/03/15 12:17:38;;;;;;;28.17;11.60;;;;;;;11.42;66.71;101890.34;6049169;28;20477;-73
2022/03/15 12:20:47;;;;;;;;;;;;;;;11.54;64.96;101884.06;6044907;28;20066;-71
2022/03/15 12:23:43;;;;;;;26.90;11.30;;;;;;;11.58;66.43;101880.19;6042951;28;20006;-70
2022/03/15 12:26:39;;;;;;;26.50;10.65;;;;;;;11.59;66.57;101875.72;6035731;28;20038;-71
2022/03/15 12:29:36;;;;;;;29.10;10.43;;;;;;;11.66;65.86;101867.13;6052037;28;20048;-73
2022/03/15 12:32:31;;;;;;;23.48;9.88;;;;;;;11.93;64.56;101872.03;6051019;28;20025;-73
2022/03/15 12:35:28;;;;;;;22.60;9.33;;;;;;;11.85;63.70;101862.03;6049446;28;20389;-73
2022/03/15 12:38:32;;;;;;;24.98;10.80;;;;;;;12.01;63.08;101861.63;6044959;28;20351;-71
2022/03/15 12:41:27;;;;;;;24.77;10.38;;;;;;;11.75;63.69;101855.78;6045115;28;20100;-72
2022/03/15 12:44:43;;;;;;;23.00;9.87;;;;;;;11.26;64.77;101848.25;6047487;28;20029;-72
2022/03/15 12:47:41;;;;;;;22.02;8.85;;;;;;;11.33;65.00;101845.97;6048440;28;20600;-73
2022/03/15 12:50:37;;;;;;;23.00;7.82;;;;;;;11.42;64.09;101834.59;6049140;28;20099;-70
2022/03/15 12:53:41;;;;;;;22.23;8.15;;;;;;;11.45;63.38;101837.00;6063937;28;20473;-70
2022/03/15 12:56:45;;;;;;;20.98;7.53;;;;;;;11.75;62.91;101834.53;6064736;28;20373;-73
2022/03/15 12:59:48;;;;;;;21.13;7.97;;;;;;;11.94;62.95;101818.75;6042920;28;20053;-73
2022/03/15 13:02:45;;;;;;;18.77;7.40;;;;;;;11.89;62.11;101810.31;6047918;28;20030;-74
2022/03/15 13:05:44;;;;;;;24.73;7.78;;;;;;;11.81;61.35;101812.78;6046396;28;20417;-72
2022/03/15 13:08:40;;;;;;;17.50;7.85;;;;;;;12.00;61.42;101805.91;6042758;28;20025;-73
2022/03/15 13:11:45;;;;;;;20.67;8.88;;;;;;;11.99;63.06;101801.56;6045554;28;20096;-73
2022/03/15 13:14:42;;;;;;;19.50;8.45;;;;;;;11.68;64.06;101801.44;6049195;28;20090;-74
2022/03/15 13:17:47;;;;;;;19.88;8.63;;;;;;;11.93;63.06;101801.09;6037345;28;20030;-72
2022/03/15 13:20:42;;;;;;;19.80;8.25;;;;;;;11.79;63.48;101787.31;6062500;28;20049;-71
2022/03/15 13:23:41;;;;;;;19.13;8.57;;;;;;;11.77;62.50;101784.75;6045545;28;20022;-73
2022/03/15 13:26:39;;;;;;;18.63;7.35;;;;;;;11.92;62.39;101786.16;6042255;28;20273;-71
2022/03/15 13:29:39;;;;;;;23.98;8.38;;;;;;;12.05;61.98;101787.75;6048586;28;20037;-74
2022/03/15 13:32:34;;;;;;;21.17;8.02;;;;;;;11.96;61.96;101777.91;6045528;28;20062;-74
2022/03/15 13:35:31;;;;;;;17.73;7.55;;;;;;;11.89;61.96;101773.13;6049142;28;20030;-74